Latest Weather Observations for Merimbula

IDN60801

Issued at 8:05 am EDT Saturday 25 October 2014 (issued every 30 minutes, with the page automatically refreshed every 10 minutes)

About weather observations | Map of weather stations | Latest weather observations for NSW | Other Formats
Station Details ID: 069147 Name: MERIMBULA AIRPORT AWS Lat: -36.91 Lon: 149.90 Height: 1.5 m
Data from the previous 72 hours. | See also: Recent months at Merimbula
Date/Time
EDT
Temp
°C
App
Temp
°C
Dew
Point
Rel
Hum
%
Delta-T
°C
Wind Press
QNH
hPa
Press
MSL
hPa
Rain
since 9 am
mm
Dir
 
Spd
km/h
Gust
km/h
Spd
kts
Gust
kts
25/08:00am 17.1 17.5 15.4 90 1.0 NE 7 13 4 7 1015.8 1015.8 0.0
25/07:55am 16.9 17.9 15.4 91 0.9 NE 4 9 2 5 1015.8 1015.8 0.0
25/07:33am 16.6 18.7 16.3 98 0.2 ENE 0 0 0 0 1015.5 1015.5 0.0
25/07:30am 16.8 19.0 16.5 98 0.2 ENE 0 0 0 0 1015.5 1015.5 0.0
25/07:07am 15.7 17.5 15.4 98 0.2 CALM 0 0 0 0 1015.1 1015.1 0.0
25/07:00am 15.3 16.9 14.8 97 0.3 CALM 0 0 0 0 1015.0 1015.0 0.0
25/06:30am 13.6 14.5 13.0 96 0.3 CALM 0 0 0 0 1014.6 1014.6 0.0
25/06:00am 14.2 14.6 13.6 96 0.3 W 4 7 2 4 1014.2 1014.2 0.0
25/05:30am 14.3 13.8 13.7 96 0.3 NNW 9 13 5 7 1014.0 1014.0 0.0
25/05:00am 13.9 14.9 13.3 96 0.3 CALM 0 0 0 0 1013.9 1013.9 0.0
25/04:30am 14.3 15.1 13.7 96 0.3 NW 2 9 1 5 1013.4 1013.4 0.0
25/04:00am 13.6 14.5 12.8 95 0.4 CALM 0 0 0 0 1013.1 1013.1 0.0
25/03:30am 14.4 15.6 13.8 96 0.3 CALM 0 0 0 0 1013.0 1013.0 0.0
25/03:00am 14.5 15.7 13.9 96 0.3 CALM 0 0 0 0 1012.6 1012.6 0.0
25/02:30am 14.5 15.7 13.7 95 0.4 CALM 0 0 0 0 1012.6 1012.6 0.0
25/02:00am 14.1 15.1 13.1 94 0.6 CALM 0 0 0 0 1012.3 1012.3 0.0
25/01:30am 14.5 15.6 13.5 94 0.6 CALM 0 0 0 0 1012.1 1012.1 0.0
25/01:00am 14.6 15.7 13.6 94 0.6 CALM 0 0 0 0 1012.2 1012.2 0.0
25/12:30am 14.9 16.1 13.9 94 0.6 CALM 0 0 0 0 1012.2 1012.2 0.0
25/12:00am 15.2 16.5 14.1 93 0.6 SSW 0 0 0 0 1012.1 1012.1 0.0
 
Date/Time
EDT
Temp
°C
App
Temp
°C
Dew
Point
Rel
Hum
%
Delta-T
°C
Wind Press
QNH
hPa
Press
MSL
hPa
Rain
since 9 am
mm
Dir
 
Spd
km/h
Gust
km/h
Spd
kts
Gust
kts
24/11:30pm 15.5 16.9 14.4 93 0.6 CALM 0 0 0 0 1012.1 1012.1 0.0
24/11:00pm 16.5 17.6 15.5 94 0.6 S 4 9 2 5 1012.1 1012.1 0.0
24/10:30pm 16.3 17.9 15.0 92 0.8 CALM 0 0 0 0 1012.0 1012.0 0.0
24/10:00pm 17.1 17.9 15.8 92 0.8 SSW 6 7 3 4 1012.0 1012.0 0.0
24/09:30pm 17.4 19.4 15.9 91 0.9 CALM 0 0 0 0 1011.8 1011.8 0.0
24/09:00pm 17.5 19.4 15.7 89 1.1 CALM 0 0 0 0 1011.8 1011.8 0.0
24/08:44pm 18.1 20.2 16.3 89 1.1 CALM 0 0 0 0 1011.8 1011.8 0.0
24/08:30pm 18.4 20.6 16.4 88 1.2 CALM 0 0 0 0 1011.6 1011.6 0.0
24/08:23pm 18.5 20.7 16.5 88 1.2 CALM 0 0 0 0 1011.5 1011.5 0.0
24/08:00pm 18.5 20.5 16.1 86 1.4 CALM 0 0 0 0 1011.4 1011.4 0.0
24/07:30pm 19.4 21.6 16.6 84 1.7 CALM 0 0 0 0 1011.2 1011.2 0.0
24/07:25pm 19.5 21.7 16.5 83 1.8 CALM 0 0 0 0 1011.2 1011.2 0.0
24/07:00pm 19.9 21.4 16.7 82 1.9 E 4 9 2 5 1011.0 1011.0 0.0
24/06:30pm 20.0 20.1 16.6 81 2.1 NNE 11 17 6 9 1010.8 1010.8 0.0
24/06:00pm 20.0 19.3 16.4 80 2.2 NE 15 22 8 12 1010.8 1010.8 0.0
24/05:30pm 20.0 19.7 16.4 80 2.2 NNE 13 22 7 12 1010.8 1010.8 0.0
24/05:00pm 20.4 19.4 16.6 79 2.3 NE 17 26 9 14 1010.7 1010.7 0.0
24/04:30pm 21.1 20.1 16.7 76 2.7 ENE 17 24 9 13 1010.9 1010.9 0.0
24/04:00pm 22.7 21.5 17.6 73 3.2 NE 20 28 11 15 1011.0 1011.0 0.0
24/03:30pm 23.0 22.4 17.5 71 3.4 NNE 17 28 9 15 1011.1 1011.1 0.0
24/03:00pm 23.1 21.0 17.1 69 3.7 NE 24 37 13 20 1011.5 1011.5 0.0
24/02:30pm 24.0 23.0 17.5 67 4.0 NE 19 32 10 17 1011.9 1011.9 0.0
24/02:00pm 23.2 21.9 16.7 67 4.0 NE 19 28 10 15 1012.4 1012.4 0.0
24/01:30pm 23.0 21.4 17.5 71 3.4 NE 22 32 12 17 1012.9 1012.9 0.0
24/01:00pm 22.9 21.7 17.4 71 3.4 NE 20 32 11 17 1013.3 1013.3 0.0
24/12:30pm 22.7 21.6 17.4 72 3.3 NNE 19 35 10 19 1014.0 1014.0 0.0
24/12:00pm 22.4 21.5 16.9 71 3.4 NNE 17 32 9 17 1014.5 1014.5 0.0
24/11:30am 22.4 21.2 17.1 72 3.3 NNE 19 30 10 16 1015.2 1015.2 0.0
24/11:00am 22.9 22.3 16.7 68 3.8 NNE 15 26 8 14 1015.8 1015.8 0.0
24/10:30am 22.3 22.7 17.2 73 3.1 N 11 19 6 10 1016.2 1016.2 0.0
24/10:00am 21.0 21.5 16.6 76 2.7 N 9 17 5 9 1016.8 1016.8 0.0
24/09:30am 20.7 20.9 16.7 78 2.4 N 11 19 6 10 1017.2 1017.2 0.0
24/09:00am 19.8 20.3 16.6 82 1.9 N 9 19 5 10 1017.6 1017.6 1.8
24/08:30am 19.3 21.7 17.1 87 1.3 CALM 0 0 0 0 1017.7 1017.7 1.8
24/08:00am 17.7 19.8 16.2 91 0.9 CALM 0 0 0 0 1017.8 1017.8 1.8
24/07:30am 17.1 19.2 16.3 95 0.5 CALM 0 0 0 0 1018.1 1018.1 1.8
24/07:18am 17.0 19.1 16.2 95 0.5 CALM 0 0 0 0 1018.2 1018.2 1.8
24/07:00am 17.1 19.2 16.3 95 0.5 CALM 0 0 0 0 1018.1 1018.1 1.8
24/06:49am 17.0 19.1 16.2 95 0.5 CALM 0 0 0 0 1018.2 1018.2 1.8
24/06:30am 16.9 18.9 16.1 95 0.5 CALM 0 0 0 0 1018.0 1018.0 1.8
24/06:00am 16.8 18.8 16.0 95 0.5 CALM 0 0 0 0 1018.0 1018.0 1.8
24/05:30am 16.8 18.8 16.0 95 0.5 CALM 0 0 0 0 1018.0 1018.0 1.8
24/05:04am 16.8 18.0 16.0 95 0.5 E 4 9 2 5 1017.8 1017.8 1.8
24/05:00am 16.8 17.1 16.0 95 0.5 SE 9 17 5 9 1017.7 1017.7 1.6
24/04:42am 17.0 17.4 16.2 95 0.5 WSW 9 13 5 7 1018.3 1018.3 1.2
24/04:30am 16.7 17.3 15.9 95 0.5 SSW 7 13 4 7 1017.4 1017.4 1.2
24/04:28am 16.7 17.3 15.9 95 0.5 SSW 7 13 4 7 1017.3 1017.3 1.2
24/04:15am 16.7 16.6 15.9 95 0.5 N 11 17 6 9 1016.9 1016.9 1.0
24/04:00am 16.5 17.2 15.5 94 0.6 N 6 13 3 7 1017.8 1017.8 0.8
24/03:38am 16.6 16.8 15.8 95 0.5 SW 9 13 5 7 1018.5 1018.5 0.6
24/03:30am 16.5 16.2 15.5 94 0.6 S 11 20 6 11 1018.2 1018.2 0.6
24/03:00am 16.5 17.2 15.5 94 0.6 N 6 11 3 6 1018.9 1018.9 0.6
24/02:57am 16.5 16.6 15.5 94 0.6 NNW 9 15 5 8 1019.1 1019.1 0.6
24/02:33am 16.5 16.7 15.7 95 0.5 W 9 15 5 8 1019.6 1019.6 0.4
24/02:30am 16.6 16.8 15.8 95 0.5 W 9 15 5 8 1019.5 1019.5 0.4
24/02:00am 16.4 17.5 15.6 95 0.5 WNW 4 11 2 6 1019.1 1019.1 0.4
24/01:30am 15.8 17.3 14.7 93 0.6 CALM 0 0 0 0 1019.4 1019.4 0.2
24/01:00am 15.8 17.2 14.3 91 0.8 CALM 0 0 0 0 1019.7 1019.7 0.2
24/12:46am 16.0 17.4 14.5 91 0.9 CALM 0 0 0 0 1019.8 1019.8 0.2
24/12:30am 16.7 18.5 15.4 92 0.8 CALM 0 0 0 0 1019.9 1019.9 0.2
24/12:00am 16.9 18.7 15.6 92 0.8 CALM 0 2 0 1 1020.2 1020.2 0.2
 
Date/Time
EDT
Temp
°C
App
Temp
°C
Dew
Point
Rel
Hum
%
Delta-T
°C
Wind Press
QNH
hPa
Press
MSL
hPa
Rain
since 9 am
mm
Dir
 
Spd
km/h
Gust
km/h
Spd
kts
Gust
kts
23/11:30pm 16.7 18.4 15.2 91 0.9 CALM 0 0 0 0 1020.4 1020.4 0.2
23/11:00pm 17.0 18.8 15.5 91 0.9 CALM 0 0 0 0 1020.2 1020.2 0.2
23/10:30pm 16.9 18.7 15.6 92 0.8 CALM 0 0 0 0 1020.0 1020.0 0.2
23/10:00pm 16.9 18.7 15.6 92 0.8 CALM 0 0 0 0 1019.9 1019.9 0.2
23/09:43pm 16.8 18.6 15.5 92 0.8 CALM 0 0 0 0 1020.2 1020.2 0.2
23/09:30pm 16.7 17.6 15.2 91 0.9 ESE 4 9 2 5 1019.9 1019.9 0.2
23/09:06pm 16.8 16.1 15.5 92 0.8 E 13 19 7 10 1019.0 1019.0 0.2
23/09:00pm 16.9 17.0 15.6 92 0.8 ENE 9 19 5 10 1019.2 1019.2 0.2
23/08:33pm 17.2 18.8 15.9 92 0.8 E 2 7 1 4 1020.7 1020.7 0.2
23/08:30pm 17.2 18.8 15.9 92 0.8 E 2 9 1 5 1020.7 1020.7 0.2
23/08:00pm 17.4 17.7 16.1 92 0.8 NNW 9 15 5 8 1020.3 1020.3 0.2
23/07:38pm 17.2 16.6 15.7 91 0.9 SSW 13 20 7 11 1019.9 1019.9 0.2
23/07:30pm 17.3 16.8 16.0 92 0.8 S 13 20 7 11 1019.6 1019.6 0.2
23/07:14pm 17.2 17.4 15.7 91 0.9 SSE 9 15 5 8 1018.7 1018.7 0.2
23/07:00pm 17.4 17.7 15.9 91 0.9 ESE 9 15 5 8 1019.4 1019.4 0.2
23/06:58pm 17.3 17.4 15.6 90 1.0 ENE 9 15 5 8 1019.2 1019.2 0.0
23/06:45pm 17.4 17.9 15.6 89 1.1 ESE 7 13 4 7 1019.0 1019.0 0.0
23/06:30pm 17.4 17.8 15.4 88 1.2 S 7 13 4 7 1019.7 1019.7 0.0
23/06:00pm 17.4 17.5 15.4 88 1.2 SE 9 13 5 7 1018.8 1018.8 0.0
23/05:30pm 17.5 17.5 15.3 87 1.3 ENE 9 15 5 8 1019.2 1019.2 0.0
23/05:00pm 18.0 17.6 15.3 84 1.6 E 11 17 6 9 1019.5 1019.5 0.0
23/04:30pm 18.4 16.9 15.3 82 1.8 E 17 24 9 13 1018.6 1018.6 0.0
23/04:09pm 19.3 18.5 15.2 77 2.4 E 13 20 7 11 1018.5 1018.5 0.0
23/04:00pm 20.3 19.3 15.7 75 2.7 E 15 22 8 12 1018.3 1018.3 0.0
23/03:30pm 20.8 20.0 16.0 74 2.9 ENE 15 24 8 13 1018.0 1018.0 0.0
23/03:00pm 20.9 19.9 15.7 72 3.1 ENE 15 22 8 12 1017.9 1017.9 0.0
23/02:30pm 21.8 21.4 16.1 70 3.4 E 13 22 7 12 1018.0 1018.0 0.0
23/02:00pm 21.9 20.8 14.3 62 4.4 E 13 20 7 11 1018.0 1018.0 0.0
23/01:30pm 23.1 21.8 14.7 59 5.0 E 15 22 8 12 1017.8 1017.8 0.0
23/01:00pm 23.1 21.8 13.6 55 5.5 ENE 13 17 7 9 1017.9 1017.9 0.0
23/12:30pm 23.1 22.2 13.6 55 5.5 E 11 17 6 9 1018.0 1018.0 0.0
23/12:00pm 23.2 21.8 13.4 54 5.7 E 13 19 7 10 1018.1 1018.1 0.0
23/11:30am 23.6 23.5 14.9 58 5.2 E 9 15 5 8 1018.2 1018.2 0.0
23/11:00am 22.2 23.3 14.6 62 4.5 SW 2 9 1 5 1018.4 1018.4 0.0
23/10:30am 21.4 21.2 14.6 65 4.0 SSW 9 13 5 7 1018.3 1018.3 0.0
23/10:00am 20.1 20.4 14.9 72 3.0 S 7 9 4 5 1018.1 1018.1 0.0
23/09:30am 19.3 21.1 15.4 78 2.3 CALM 0 0 0 0 1017.8 1017.8 0.0
23/09:00am 17.7 19.1 14.4 81 1.9 CALM 0 7 0 4 1017.4 1017.4 0.0
23/08:30am 17.1 18.4 14.0 82 1.8 CALM 0 0 0 0 1017.1 1017.1 0.0
23/08:00am 15.6 16.9 14.0 90 0.9 CALM 0 0 0 0 1018.0 1018.0 0.0
23/07:30am 14.3 15.5 13.7 96 0.3 CALM 0 0 0 0 1017.9 1017.9 0.0
23/07:00am 12.2 12.3 11.6 96 0.3 S 2 7 1 4 1017.5 1017.5 0.0
23/06:36am 11.3 10.4 10.5 95 0.4 S 6 9 3 5 1016.8 1016.8 0.0
23/06:30am 10.7 10.3 9.8 94 0.5 SSW 2 9 1 5 1016.7 1016.7 0.0
23/06:20am 10.6 10.6 9.7 94 0.5 CALM 0 0 0 0 1016.7 1016.7 0.0
23/06:00am 11.0 11.1 10.1 94 0.5 CALM 0 6 0 3 1016.5 1016.5 0.0
23/05:30am 11.5 11.7 10.7 95 0.4 CALM 0 9 0 5 1016.4 1016.4 0.0
23/05:00am 12.0 12.4 11.2 95 0.4 CALM 0 0 0 0 1016.3 1016.3 0.0
23/04:30am 12.3 12.8 11.5 95 0.4 CALM 0 0 0 0 1016.4 1016.4 0.0
23/04:00am 12.3 12.8 11.5 95 0.4 CALM 0 0 0 0 1016.4 1016.4 0.0
23/03:30am 12.2 12.6 11.4 95 0.4 CALM 0 0 0 0 1016.4 1016.4 0.0
23/03:00am 12.0 12.4 11.2 95 0.4 CALM 0 0 0 0 1016.5 1016.5 0.0
23/02:30am 11.6 11.8 10.7 94 0.5 CALM 0 0 0 0 1016.8 1016.8 0.0
23/02:00am 12.0 12.0 11.2 95 0.4 SW 2 9 1 5 1017.3 1017.3 0.0
23/01:30am 12.0 11.1 11.2 95 0.4 SW 7 13 4 7 1017.6 1017.6 0.0
23/01:00am 11.8 12.1 10.9 94 0.5 CALM 0 0 0 0 1017.9 1017.9 0.0
23/12:30am 11.3 11.4 10.2 93 0.6 CALM 0 0 0 0 1018.1 1018.1 0.0
23/12:00am 11.7 11.9 10.6 93 0.6 CALM 0 0 0 0 1018.3 1018.3 0.0
 
Date/Time
EDT
Temp
°C
App
Temp
°C
Dew
Point
Rel
Hum
%
Delta-T
°C
Wind Press
QNH
hPa
Press
MSL
hPa
Rain
since 9 am
mm
Dir
 
Spd
km/h
Gust
km/h
Spd
kts
Gust
kts
22/11:30pm 12.0 12.3 10.9 93 0.6 CALM 0 0 0 0 1018.5 1018.5 0.0
22/11:00pm 12.7 13.2 11.6 93 0.6 CALM 0 0 0 0 1018.5 1018.5 0.0
22/10:30pm 12.9 13.4 11.5 91 0.7 CALM 0 0 0 0 1018.9 1018.9 0.0
22/10:00pm 13.1 13.6 11.5 90 0.8 CALM 0 0 0 0 1019.0 1019.0 0.0
22/09:30pm 13.6 14.1 11.5 87 1.1 CALM 0 0 0 0 1019.1 1019.1 0.0
22/09:00pm 14.6 15.4 12.5 87 1.1 CALM 0 0 0 0 1019.0 1019.0 0.0
22/08:30pm 15.1 15.8 12.1 82 1.6 CALM 0 0 0 0 1018.8 1018.8 0.0
22/08:00pm 16.6 17.5 12.9 79 2.1 CALM 0 0 0 0 1018.4 1018.4 0.0
22/07:30pm 17.1 18.0 13.0 77 2.3 CALM 0 0 0 0 1018.6 1018.6 0.0
22/07:00pm 17.9 16.4 13.2 74 2.6 NE 13 17 7 9 1018.3 1018.3 0.0
22/06:30pm 18.6 16.7 13.0 70 3.2 NE 15 24 8 13 1018.2 1018.2 0.0
22/06:00pm 19.1 16.7 12.8 67 3.5 NNE 17 22 9 12 1018.3 1018.3 0.0
22/05:30pm 19.6 17.2 12.6 64 3.9 NNE 17 26 9 14 1018.4 1018.4 0.0
22/05:00pm 19.6 16.7 12.4 63 4.0 NNE 19 28 10 15 1018.5 1018.5 0.0
22/04:30pm 19.8 16.8 12.1 61 4.3 NNE 19 32 10 17 1018.5 1018.5 0.0
22/04:00pm 19.8 16.2 11.8 60 4.4 NE 22 35 12 19 1018.7 1018.7 0.0
22/03:30pm 20.1 16.6 12.1 60 4.5 NE 22 35 12 19 1018.9 1018.9 0.0
22/03:00pm 20.2 16.9 11.7 58 4.7 NE 20 35 11 19 1019.2 1019.2 0.0
22/02:30pm 20.1 16.4 11.6 58 4.7 NNE 22 37 12 20 1019.7 1019.7 0.0
22/02:00pm 20.2 16.4 11.1 56 5.0 NE 22 43 12 23 1020.0 1020.0 0.0
22/01:30pm 20.2 16.6 11.7 58 4.7 NE 22 33 12 18 1020.5 1020.5 0.0
22/01:00pm 20.2 16.6 11.7 58 4.7 NE 22 39 12 21 1020.9 1020.9 0.0
22/12:30pm 20.0 16.7 11.0 56 4.9 NNE 19 32 10 17 1021.5 1021.5 0.0
22/12:00pm 19.9 16.2 11.4 58 4.7 NE 22 35 12 19 1022.0 1022.0 0.0
22/11:30am 19.6 15.3 10.6 56 4.9 NE 24 35 13 19 1022.6 1022.6 0.0
22/11:00am 19.2 15.0 9.7 54 5.0 NE 22 35 12 19 1023.1 1023.1 0.0
22/10:30am 19.1 15.3 9.9 55 4.9 NE 20 30 11 16 1023.6 1023.6 0.0
22/10:00am 18.7 15.2 8.7 52 5.2 N 17 24 9 13 1024.0 1024.0 0.0
22/09:30am 18.4 15.3 8.9 54 4.9 N 15 24 8 13 1024.4 1024.4 0.0
22/09:00am 17.2 13.8 7.8 54 4.7 N 15 26 8 14 1024.5 1024.5 0.0
22/08:30am 16.4 14.1 8.9 61 3.9 NNW 11 19 6 10 1024.7 1024.7 0.0

Other Formats:

Comma delimited format used in spreadsheet applications
http://www.bom.gov.au/fwo/IDN60801/IDN60801.95929.axf

JavaScript Object Notation format (JSON) in row-major order
http://www.bom.gov.au/fwo/IDN60801/IDN60801.95929.json